createdAt,value
2022-12-23T00:03:26.563Z,65553.00
2022-12-23T00:08:31.205Z,65542.63
2022-12-23T00:13:53.088Z,65590.25
2022-12-23T00:18:59.630Z,65603.22
2022-12-23T00:24:04.344Z,65581.56
2022-12-23T00:29:08.995Z,65582.53
2022-12-23T00:34:14.954Z,65596.31
2022-12-23T00:39:36.692Z,65523.78
2022-12-23T00:44:42.116Z,65542.34
2022-12-23T00:49:48.429Z,65509.50
2022-12-23T00:54:52.914Z,65530.16
2022-12-23T00:59:57.444Z,65577.63
2022-12-23T01:05:21.056Z,65526.53
2022-12-23T01:10:25.518Z,65518.34
2022-12-23T01:15:29.965Z,65503.84
2022-12-23T01:20:35.995Z,65522.81
2022-12-23T01:25:40.462Z,65534.53
2022-12-23T01:30:44.894Z,65496.41
2022-12-23T01:35:50.918Z,65520.56
2022-12-23T01:40:55.761Z,65589.38
2022-12-23T01:46:00.829Z,65591.50
2022-12-23T01:51:10.161Z,65514.19
2022-12-23T01:56:18.575Z,65500.31
2022-12-23T02:01:41.107Z,65550.63
2022-12-23T02:07:07.316Z,65538.50
2022-12-23T02:12:33.090Z,65529.72
2022-12-23T02:17:45.623Z,65528.56
2022-12-23T02:23:16.860Z,65534.00
2022-12-23T02:28:51.029Z,65538.16
2022-12-23T02:34:03.894Z,65500.97
2022-12-23T02:39:12.265Z,65577.19
2022-12-23T02:44:24.821Z,65559.84
2022-12-23T02:49:34.948Z,65558.34
2022-12-23T02:54:46.522Z,65500.09
2022-12-23T02:59:53.459Z,65481.75
2022-12-23T03:05:00.960Z,65518.44
2022-12-23T03:10:14.907Z,65492.97
2022-12-23T03:15:28.785Z,65515.88
2022-12-23T03:20:44.210Z,65602.28
2022-12-23T03:25:59.183Z,65582.88
2022-12-23T03:31:05.303Z,65553.13
2022-12-23T03:36:14.832Z,65566.44
2022-12-23T03:41:26.492Z,65580.94
2022-12-23T03:46:35.773Z,65556.94
2022-12-23T03:51:47.607Z,65537.53
2022-12-23T03:56:56.335Z,65517.38
2022-12-23T04:02:08.700Z,65580.94
2022-12-23T04:07:20.052Z,65586.72
2022-12-23T04:12:26.969Z,65548.31
2022-12-23T04:17:31.430Z,65536.13
2022-12-23T04:22:37.702Z,65576.75
2022-12-23T04:27:42.261Z,65593.22
2022-12-23T04:32:46.941Z,65496.59
2022-12-23T04:37:52.841Z,65484.44
2022-12-23T04:42:59.721Z,65502.34
2022-12-23T04:48:04.305Z,65465.13
2022-12-23T04:53:10.500Z,65490.28
2022-12-23T04:58:15.123Z,65533.91
2022-12-23T05:03:19.942Z,65485.31
2022-12-23T05:08:26.050Z,65473.13
2022-12-23T05:13:30.553Z,65520.03
2022-12-23T05:18:35.180Z,65477.41
2022-12-23T05:23:41.310Z,65527.50
2022-12-23T05:28:47.561Z,65449.34
2022-12-23T05:33:52.208Z,65473.56
2022-12-23T05:38:58.688Z,65499.78
2022-12-23T05:44:03.143Z,65523.00
2022-12-23T05:49:07.645Z,65496.06
2022-12-23T05:54:13.568Z,65443.28
2022-12-23T05:59:19.517Z,65494.47
2022-12-23T06:04:24.169Z,65482.09
2022-12-23T06:09:30.401Z,65502.47
2022-12-23T06:14:35.047Z,65548.22
2022-12-23T06:19:39.869Z,65529.19
2022-12-23T06:24:46.183Z,65523.78
2022-12-23T06:29:51.208Z,65583.94
2022-12-23T06:34:57.938Z,65502.03
2022-12-23T06:40:05.523Z,65503.94
2022-12-23T06:45:11.469Z,65522.72
2022-12-23T06:50:16.047Z,65599.50
2022-12-23T06:55:21.968Z,65502.47
2022-12-23T07:00:26.655Z,65584.22
2022-12-23T07:05:37.013Z,65593.09
2022-12-23T07:10:44.011Z,65633.03
2022-12-23T07:15:48.607Z,65677.97
2022-12-23T07:20:53.480Z,65669.41
2022-12-23T07:25:59.521Z,65648.06
2022-12-23T07:31:06.987Z,65648.16
2022-12-23T07:36:11.629Z,65659.38
2022-12-23T07:41:17.661Z,65709.47
2022-12-23T07:46:22.459Z,65681.69
2022-12-23T07:51:27.206Z,65648.69
2022-12-23T07:56:33.329Z,65682.75
2022-12-23T08:01:37.906Z,65681.88
2022-12-23T08:06:42.770Z,65672.28
2022-12-23T08:11:48.779Z,65744.25
2022-12-23T08:16:53.372Z,65658.09
2022-12-23T08:22:00.380Z,65699.31
2022-12-23T08:27:06.475Z,65679.22
2022-12-23T08:32:11.089Z,65680.28
2022-12-23T08:37:15.559Z,65684.44
2022-12-23T08:42:21.526Z,65743.09
2022-12-23T08:47:25.653Z,65772.03
2022-12-23T08:52:30.249Z,65717.47
2022-12-23T08:57:37.081Z,65735.72
2022-12-23T09:02:41.891Z,65756.00
2022-12-23T09:07:47.064Z,65840.47
2022-12-23T09:12:53.390Z,65810.00
2022-12-23T09:17:57.879Z,65742.13
2022-12-23T09:23:02.637Z,65750.59
2022-12-23T09:28:09.386Z,65763.41
2022-12-23T09:33:14.780Z,65749.06
2022-12-23T09:38:19.133Z,65755.38
2022-12-23T09:43:33.741Z,65832.88
2022-12-23T09:48:43.599Z,65803.59
2022-12-23T09:53:58.011Z,65782.28
2022-12-23T09:59:12.848Z,65829.03
2022-12-23T10:04:35.752Z,65831.28
2022-12-23T10:09:42.616Z,65870.50
2022-12-23T10:14:51.792Z,65975.75
2022-12-23T10:20:01.072Z,65966.59
2022-12-23T10:25:14.611Z,65944.19
2022-12-23T10:35:57.910Z,66041.59
2022-12-23T10:41:10.012Z,66052.75
2022-12-23T10:46:24.871Z,65988.69
2022-12-23T10:51:34.815Z,65968.06
2022-12-23T10:56:40.390Z,65946.34
2022-12-23T11:01:51.570Z,65957.56
2022-12-23T11:07:26.179Z,65998.25
2022-12-23T11:12:24.992Z,65962.91
2022-12-23T11:17:33.369Z,65910.94
2022-12-23T11:22:47.961Z,65878.94
2022-12-23T11:27:55.980Z,65793.66
2022-12-23T11:33:02.023Z,65882.16
2022-12-23T11:38:13.756Z,65831.91
2022-12-23T11:43:21.114Z,65759.03
2022-12-23T11:48:31.811Z,65709.03
2022-12-23T11:53:38.129Z,65721.13
2022-12-23T11:58:50.159Z,65732.06
2022-12-23T12:04:00.742Z,65713.09
2022-12-23T12:09:07.265Z,65765.72
2022-12-23T12:14:23.304Z,65793.25
2022-12-23T12:19:30.529Z,65741.50
2022-12-23T12:24:40.281Z,65713.41
2022-12-23T12:29:50.393Z,65692.28
2022-12-23T12:35:00.242Z,65693.00
2022-12-23T12:40:15.378Z,65674.22
2022-12-23T12:45:25.245Z,65677.44
2022-12-23T12:50:35.325Z,65667.47
2022-12-23T12:55:59.806Z,65608.03
2022-12-23T13:01:18.858Z,65671.09
2022-12-23T13:06:35.967Z,65659.91
2022-12-23T13:11:47.514Z,65659.28
2022-12-23T13:17:04.176Z,65670.38
2022-12-23T13:22:14.290Z,65669.41
2022-12-23T13:27:23.326Z,65676.91
2022-12-23T13:32:44.915Z,65660.34
2022-12-23T13:37:57.950Z,65678.16
2022-12-23T13:43:11.674Z,65662.69
2022-12-23T13:48:32.149Z,65753.25
2022-12-23T13:53:51.235Z,65658.06
2022-12-23T13:58:59.220Z,65651.34
2022-12-23T14:04:36.084Z,65640.69
2022-12-23T14:09:43.309Z,65653.50
2022-12-23T14:15:04.313Z,65646.03
2022-12-23T14:20:21.831Z,65663.53
2022-12-23T14:25:54.253Z,65636.34
2022-12-23T14:30:59.410Z,65680.09
2022-12-23T14:36:26.632Z,65655.19
2022-12-23T14:41:50.639Z,65641.13
2022-12-23T14:47:02.744Z,65691.94
2022-12-23T14:52:50.590Z,65647.09
2022-12-23T14:58:08.705Z,65601.84
2022-12-23T15:03:14.223Z,65674.22
2022-12-23T15:08:32.076Z,65601.19
2022-12-23T15:13:39.428Z,65645.38
2022-12-23T15:18:54.246Z,65629.47
2022-12-23T15:23:58.895Z,65633.66
2022-12-23T15:29:08.398Z,65676.34
2022-12-23T15:34:22.590Z,65672.09
2022-12-23T15:39:33.720Z,65660.09
2022-12-23T15:44:40.915Z,65702.06
2022-12-23T15:49:46.452Z,65663.53
2022-12-23T15:55:04.306Z,65653.84
2022-12-23T16:00:20.939Z,65634.91
2022-12-23T16:05:30.361Z,65624.47
2022-12-23T16:10:35.034Z,65651.81
2022-12-23T16:15:41.080Z,65627.69
2022-12-23T16:20:48.462Z,65631.97
2022-12-23T16:25:54.822Z,65646.56
2022-12-23T16:31:00.901Z,65623.63
2022-12-23T16:36:33.382Z,65607.59
2022-12-23T16:41:38.263Z,65619.78
2022-12-23T16:46:49.218Z,65585.84
2022-12-23T16:52:10.732Z,65555.88
2022-12-23T16:57:27.913Z,65589.22
2022-12-23T17:02:36.456Z,65588.94
2022-12-23T17:07:45.671Z,65657.25
2022-12-23T17:13:27.618Z,65637.41
2022-12-23T17:18:43.116Z,65630.38
2022-12-23T17:24:20.105Z,65604.84
2022-12-23T17:29:28.563Z,65618.81
2022-12-23T17:34:53.014Z,65626.81
2022-12-23T17:40:02.162Z,65637.94
2022-12-23T17:45:10.709Z,65634.91
2022-12-23T17:50:16.871Z,65627.16
2022-12-23T17:55:23.036Z,65649.22
2022-12-23T18:00:33.971Z,65651.72
2022-12-23T18:05:40.450Z,65670.56
2022-12-23T18:10:45.749Z,65613.56
2022-12-23T18:15:51.375Z,65622.66
2022-12-23T18:20:58.770Z,65618.09
2022-12-23T18:26:03.314Z,65600.03
2022-12-23T18:31:08.207Z,65624.47
2022-12-23T18:36:22.797Z,65635.34
2022-12-23T18:41:28.839Z,65642.41
2022-12-23T18:46:33.060Z,65637.19
2022-12-23T18:51:39.137Z,65687.47
2022-12-23T18:56:44.053Z,65714.16
2022-12-23T19:01:48.970Z,65707.94
2022-12-23T19:06:56.452Z,65726.00
2022-12-23T19:12:01.009Z,65711.16
2022-12-23T19:17:05.634Z,65748.00
2022-12-23T19:22:11.751Z,65688.19
2022-12-23T19:27:16.494Z,65693.00
2022-12-23T19:32:21.127Z,65703.25
2022-12-23T19:37:27.573Z,65708.50
2022-12-23T19:42:33.982Z,65690.94
2022-12-23T19:47:38.934Z,65698.88
2022-12-23T19:52:44.982Z,65741.59
2022-12-23T19:57:49.194Z,65790.66
2022-12-23T20:02:58.633Z,65735.09
2022-12-23T20:08:05.356Z,65775.78
2022-12-23T20:13:09.831Z,65707.31
2022-12-23T20:18:14.407Z,65767.78
2022-12-23T20:23:20.481Z,65732.59
2022-12-23T20:28:25.212Z,65761.81
2022-12-23T20:33:29.753Z,65741.59
2022-12-23T20:38:37.235Z,65736.88
2022-12-23T20:43:42.608Z,65806.25
2022-12-23T20:48:48.833Z,65701.09
2022-12-23T20:53:58.708Z,65744.25
2022-12-23T20:59:04.178Z,65704.31
2022-12-23T21:04:11.583Z,65687.75
2022-12-23T21:09:17.993Z,65707.31
2022-12-23T21:14:22.477Z,65714.16
2022-12-23T21:19:27.904Z,65687.66
2022-12-23T21:24:35.593Z,65781.03
2022-12-23T21:29:40.256Z,65711.16
2022-12-23T21:34:44.790Z,65765.63
2022-12-23T21:39:52.674Z,65713.72
2022-12-23T21:44:57.197Z,65744.25
2022-12-23T21:50:01.756Z,65772.66
2022-12-23T21:55:08.427Z,65751.13
2022-12-23T22:00:13.689Z,65726.00
2022-12-23T22:05:18.257Z,65737.84
2022-12-23T22:10:24.163Z,65776.31
2022-12-23T22:15:28.746Z,65780.38
2022-12-23T22:20:41.165Z,65803.59
2022-12-23T22:25:55.105Z,65770.00
2022-12-23T22:31:03.624Z,65746.41
2022-12-23T22:36:09.036Z,65800.72
2022-12-23T22:41:16.219Z,65791.28
2022-12-23T22:46:21.058Z,65706.25
2022-12-23T22:51:27.712Z,65766.16
2022-12-23T22:56:33.879Z,65751.84
2022-12-23T23:01:40.173Z,65768.19
2022-12-23T23:06:44.752Z,65883.22
2022-12-23T23:11:51.447Z,65869.31
2022-12-23T23:16:56.134Z,65867.09
2022-12-23T23:22:01.141Z,65764.38
2022-12-23T23:27:07.218Z,65799.94
2022-12-23T23:32:11.677Z,65720.84
2022-12-23T23:37:16.223Z,65763.94
2022-12-23T23:42:22.202Z,65853.19
2022-12-23T23:47:26.751Z,65809.91
2022-12-23T23:52:31.267Z,65822.19
2022-12-23T23:57:37.240Z,65886.53
